createdAt,value
2023-05-11T00:00:51.743Z,100.00
2023-05-11T00:02:13.856Z,100.00
2023-05-11T00:03:37.148Z,100.00
2023-05-11T00:05:00.035Z,100.00
2023-05-11T00:06:24.371Z,100.00
2023-05-11T00:07:46.186Z,100.00
2023-05-11T00:09:09.512Z,100.00
2023-05-11T00:10:31.358Z,100.00
2023-05-11T00:11:54.302Z,100.00
2023-05-11T00:13:17.183Z,100.00
2023-05-11T00:14:40.355Z,100.00
2023-05-11T00:16:04.053Z,100.00
2023-05-11T00:17:26.956Z,100.00
2023-05-11T00:18:49.367Z,100.00
2023-05-11T00:20:12.483Z,100.00
2023-05-11T00:21:35.664Z,100.00
2023-05-11T00:22:58.436Z,100.00
2023-05-11T00:24:21.242Z,100.00
2023-05-11T00:25:43.069Z,100.00
2023-05-11T00:27:06.126Z,100.00
2023-05-11T00:28:27.914Z,100.00
2023-05-11T00:29:50.646Z,100.00
2023-05-11T00:31:12.510Z,100.00
2023-05-11T00:32:35.511Z,100.00
2023-05-11T00:33:58.291Z,100.00
2023-05-11T00:35:21.559Z,100.00
2023-05-11T00:36:45.397Z,100.00
2023-05-11T00:38:08.179Z,100.00
2023-05-11T00:39:29.972Z,100.00
2023-05-11T00:40:52.762Z,100.00
2023-05-11T00:42:14.653Z,100.00
2023-05-11T00:43:37.394Z,100.00
2023-05-11T00:45:00.316Z,100.00
2023-05-11T00:46:23.338Z,100.00
2023-05-11T00:47:46.578Z,100.00
2023-05-11T00:49:09.621Z,100.00
2023-05-11T00:50:32.692Z,100.00
2023-05-11T00:51:57.743Z,100.00
2023-05-11T00:53:19.625Z,100.00
2023-05-11T00:54:42.646Z,100.00
2023-05-11T00:56:06.079Z,100.00
2023-05-11T00:57:28.115Z,100.00
2023-05-11T00:58:51.017Z,100.00
2023-05-11T01:00:14.645Z,100.00
2023-05-11T01:01:39.732Z,100.00
2023-05-11T01:03:01.857Z,100.00
2023-05-11T01:04:24.794Z,100.00
2023-05-11T01:05:53.449Z,100.00
2023-05-11T01:07:21.710Z,100.00
2023-05-11T01:08:47.064Z,100.00
2023-05-11T01:10:18.658Z,100.00
2023-05-11T01:11:47.813Z,100.00
2023-05-11T01:13:18.429Z,100.00
2023-05-11T01:14:47.201Z,100.00
2023-05-11T01:16:17.224Z,100.00
2023-05-11T01:17:46.046Z,100.00
2023-05-11T01:19:20.256Z,100.00
2023-05-11T01:20:47.274Z,100.00
2023-05-11T01:22:27.750Z,100.00
2023-05-11T01:24:21.012Z,100.00
2023-05-11T01:25:56.833Z,100.00
2023-05-11T01:27:44.581Z,100.00
2023-05-11T01:29:43.088Z,100.00
2023-05-11T01:31:10.643Z,100.00
2023-05-11T01:32:35.833Z,100.00
2023-05-11T01:34:03.384Z,100.00
2023-05-11T01:35:27.250Z,100.00
2023-05-11T01:36:53.627Z,100.00
2023-05-11T01:38:20.147Z,100.00
2023-05-11T01:39:50.113Z,100.00
2023-05-11T01:41:16.117Z,100.00
2023-05-11T01:42:41.919Z,100.00
2023-05-11T01:44:08.624Z,100.00
2023-05-11T01:45:34.399Z,100.00
2023-05-11T01:47:02.068Z,100.00
2023-05-11T01:48:29.002Z,100.00
2023-05-11T01:49:52.099Z,100.00
2023-05-11T01:51:17.955Z,100.00
2023-05-11T01:52:41.135Z,100.00
2023-05-11T01:54:07.004Z,100.00
2023-05-11T01:55:32.897Z,100.00
2023-05-11T01:56:56.720Z,100.00
2023-05-11T01:58:20.692Z,100.00
2023-05-11T01:59:45.254Z,100.00
2023-05-11T02:01:09.565Z,100.00
2023-05-11T02:02:35.417Z,100.00
2023-05-11T02:04:04.035Z,100.00
2023-05-11T02:05:26.926Z,100.00
2023-05-11T02:06:50.729Z,100.00
2023-05-11T02:08:14.365Z,100.00
2023-05-11T02:09:37.976Z,100.00
2023-05-11T02:11:03.402Z,100.00
2023-05-11T02:12:27.485Z,100.00
2023-05-11T02:13:51.692Z,100.00
2023-05-11T02:15:16.863Z,100.00
2023-05-11T02:16:40.117Z,100.00
2023-05-11T02:18:04.735Z,100.00
2023-05-11T02:19:28.928Z,100.00
2023-05-11T02:20:51.893Z,100.00
2023-05-11T02:22:15.342Z,100.00
2023-05-11T02:23:37.666Z,100.00
2023-05-11T02:25:00.636Z,100.00
2023-05-11T02:26:22.636Z,100.00
2023-05-11T02:27:46.035Z,100.00
2023-05-11T02:29:08.036Z,100.00
2023-05-11T02:30:33.545Z,100.00
2023-05-11T02:32:00.610Z,100.00
2023-05-11T02:33:29.076Z,100.00
2023-05-11T02:34:58.569Z,100.00
2023-05-11T02:36:24.718Z,100.00
2023-05-11T02:37:47.778Z,100.00
2023-05-11T02:39:13.726Z,100.00
2023-05-11T02:40:47.928Z,100.00
2023-05-11T02:42:15.240Z,100.00
2023-05-11T02:43:43.467Z,100.00
2023-05-11T02:45:08.482Z,100.00
2023-05-11T02:46:35.514Z,100.00
2023-05-11T02:47:59.110Z,100.00
2023-05-11T02:49:27.116Z,100.00
2023-05-11T02:50:52.382Z,100.00
2023-05-11T02:52:16.896Z,100.00
2023-05-11T02:53:41.346Z,100.00
2023-05-11T02:55:05.354Z,100.00
2023-05-11T02:56:27.500Z,100.00
2023-05-11T02:57:52.178Z,100.00
2023-05-11T02:59:15.962Z,100.00
2023-05-11T03:00:40.129Z,100.00
2023-05-11T03:02:02.336Z,100.00
2023-05-11T03:03:25.678Z,100.00
2023-05-11T03:04:48.913Z,100.00
2023-05-11T03:06:12.213Z,100.00
2023-05-11T03:07:35.204Z,100.00
2023-05-11T03:08:57.344Z,100.00
2023-05-11T03:10:20.419Z,100.00
2023-05-11T03:11:43.331Z,100.00
2023-05-11T03:13:07.558Z,100.00
2023-05-11T03:14:31.589Z,100.00
2023-05-11T03:15:55.739Z,100.00
2023-05-11T03:17:19.723Z,100.00
2023-05-11T03:18:43.065Z,100.00
2023-05-11T03:20:08.706Z,100.00
2023-05-11T03:21:32.210Z,100.00
2023-05-11T03:22:56.688Z,100.00
2023-05-11T03:24:18.807Z,100.00
2023-05-11T03:25:43.367Z,100.00
2023-05-11T03:27:09.279Z,100.00
2023-05-11T03:28:32.849Z,100.00
2023-05-11T03:29:57.629Z,100.00
2023-05-11T03:31:19.577Z,100.00
2023-05-11T03:32:42.575Z,100.00
2023-05-11T03:34:05.498Z,100.00
2023-05-11T03:35:32.144Z,100.00
2023-05-11T03:36:55.980Z,100.00
2023-05-11T03:38:22.629Z,100.00
2023-05-11T03:39:48.744Z,100.00
2023-05-11T03:41:15.047Z,100.00
2023-05-11T03:42:39.680Z,100.00
2023-05-11T03:44:06.368Z,100.00
2023-05-11T03:45:31.424Z,100.00
2023-05-11T03:46:55.495Z,100.00
2023-05-11T03:48:19.690Z,100.00
2023-05-11T03:49:43.693Z,100.00
2023-05-11T03:51:07.320Z,100.00
2023-05-11T03:52:30.916Z,100.00
2023-05-11T03:53:52.882Z,100.00
2023-05-11T03:55:16.138Z,100.00
2023-05-11T03:56:41.073Z,100.00
2023-05-11T03:58:07.466Z,100.00
2023-05-11T03:59:30.203Z,100.00
2023-05-11T04:00:52.546Z,100.00
2023-05-11T04:02:15.577Z,100.00
2023-05-11T04:03:49.469Z,100.00
2023-05-11T04:05:13.976Z,100.00
2023-05-11T04:06:38.201Z,100.00
2023-05-11T04:08:00.712Z,100.00
2023-05-11T04:09:23.975Z,100.00
2023-05-11T04:10:46.921Z,100.00
2023-05-11T04:12:08.903Z,100.00
2023-05-11T04:13:31.653Z,100.00
2023-05-11T04:14:54.445Z,100.00
2023-05-11T04:16:16.293Z,100.00
2023-05-11T04:17:39.589Z,100.00
2023-05-11T04:19:01.978Z,100.00
2023-05-11T04:20:24.944Z,100.00
2023-05-11T04:21:49.073Z,100.00
2023-05-11T04:23:11.932Z,100.00
2023-05-11T04:24:33.753Z,100.00
2023-05-11T04:25:57.289Z,100.00
2023-05-11T04:27:20.102Z,100.00
2023-05-11T04:28:41.943Z,100.00
2023-05-11T04:30:05.428Z,100.00
2023-05-11T04:31:27.301Z,100.00
2023-05-11T04:32:50.191Z,100.00
2023-05-11T04:34:12.039Z,100.00
2023-05-11T04:35:34.802Z,100.00
2023-05-11T04:36:59.043Z,100.00
2023-05-11T04:38:22.171Z,100.00
2023-05-11T04:39:44.941Z,100.00
2023-05-11T04:41:08.767Z,100.00
2023-05-11T04:42:31.547Z,100.00
2023-05-11T04:43:53.411Z,100.00
2023-05-11T04:45:16.226Z,100.00
2023-05-11T04:46:39.388Z,100.00
2023-05-11T04:48:01.353Z,100.00
2023-05-11T04:49:24.325Z,100.00
2023-05-11T04:50:46.342Z,100.00
2023-05-11T04:52:10.545Z,100.00
2023-05-11T04:53:33.409Z,100.00
2023-05-11T04:54:55.338Z,100.00
2023-05-11T04:56:18.273Z,100.00
2023-05-11T04:57:40.175Z,100.00
2023-05-11T04:59:05.262Z,100.00
2023-05-11T05:00:28.262Z,100.00
2023-05-11T05:01:51.029Z,100.00
2023-05-11T05:03:13.861Z,100.00
2023-05-11T05:04:36.587Z,100.00
2023-05-11T05:05:59.467Z,100.00
2023-05-11T05:07:23.550Z,100.00
2023-05-11T05:08:46.345Z,100.00
2023-05-11T05:10:09.360Z,100.00
2023-05-11T05:11:32.169Z,100.00
2023-05-11T05:12:54.338Z,100.00
2023-05-11T05:14:17.218Z,100.00
2023-05-11T05:15:40.018Z,100.00
2023-05-11T05:17:02.885Z,99.71
2023-05-11T05:18:25.708Z,100.00
2023-05-11T05:19:47.549Z,100.00
2023-05-11T05:21:10.353Z,100.00
2023-05-11T05:22:35.113Z,100.00
2023-05-11T05:23:57.943Z,100.00
2023-05-11T05:25:21.460Z,100.00
2023-05-11T05:26:44.645Z,100.00
2023-05-11T05:28:06.505Z,100.00
2023-05-11T05:29:29.301Z,100.00
2023-05-11T05:30:52.227Z,100.00
2023-05-11T05:32:15.075Z,100.00
2023-05-11T05:33:37.827Z,100.00
2023-05-11T05:34:59.712Z,100.00
2023-05-11T05:36:22.565Z,100.00
2023-05-11T05:37:46.682Z,100.00
2023-05-11T05:39:09.908Z,100.00
2023-05-11T05:40:32.816Z,100.00
2023-05-11T05:41:55.616Z,100.00
2023-05-11T05:43:18.450Z,100.00
2023-05-11T05:44:41.212Z,100.00
2023-05-11T05:46:04.068Z,100.00
2023-05-11T05:47:26.903Z,100.00
2023-05-11T05:48:49.692Z,100.00
2023-05-11T05:50:12.730Z,100.00
2023-05-11T05:51:35.660Z,100.00
2023-05-11T05:52:59.960Z,100.00
2023-05-11T05:54:22.736Z,100.00
2023-05-11T05:55:45.511Z,100.00
2023-05-11T05:57:08.326Z,100.00
2023-05-11T05:58:31.083Z,100.00
2023-05-11T05:59:53.857Z,100.00
2023-05-11T06:01:16.743Z,100.00
2023-05-11T06:02:39.698Z,100.00
2023-05-11T06:04:02.747Z,100.00
2023-05-11T06:05:25.970Z,100.00
2023-05-11T06:06:47.836Z,100.00
2023-05-11T06:08:12.812Z,100.00
2023-05-11T06:09:37.459Z,100.00
2023-05-11T06:11:01.835Z,100.00
2023-05-11T06:12:24.668Z,100.00
2023-05-11T06:13:47.500Z,100.00
2023-05-11T06:15:11.181Z,100.00
2023-05-11T06:16:34.135Z,100.00
2023-05-11T06:17:57.072Z,100.00
2023-05-11T06:19:19.905Z,100.00
2023-05-11T06:20:43.154Z,99.97
2023-05-11T06:22:06.802Z,99.89
2023-05-11T06:23:31.395Z,100.00
2023-05-11T06:24:54.189Z,100.00
2023-05-11T06:26:16.046Z,100.00
2023-05-11T06:27:38.798Z,100.00
2023-05-11T06:29:01.776Z,100.00
2023-05-11T06:30:24.543Z,100.00
2023-05-11T06:31:49.289Z,100.00
2023-05-11T06:33:12.145Z,100.00
2023-05-11T06:34:34.974Z,100.00
2023-05-11T06:35:58.062Z,100.00
2023-05-11T06:37:21.377Z,100.00
2023-05-11T06:38:44.601Z,100.00
2023-05-11T06:40:08.796Z,100.00
2023-05-11T06:41:31.596Z,100.00
2023-05-11T06:42:54.354Z,99.93
2023-05-11T06:44:17.100Z,99.98
2023-05-11T06:45:41.766Z,99.73
2023-05-11T06:47:04.622Z,99.43
2023-05-11T06:48:29.770Z,100.00
2023-05-11T06:49:52.664Z,100.00
2023-05-11T06:51:15.541Z,100.00
2023-05-11T06:52:38.313Z,100.00
2023-05-11T06:54:02.740Z,99.69
2023-05-11T06:55:27.812Z,99.65
2023-05-11T06:56:50.765Z,99.31
2023-05-11T06:58:12.866Z,98.58
2023-05-11T06:59:35.834Z,99.60
2023-05-11T07:00:58.731Z,100.00
2023-05-11T07:02:20.568Z,100.00
2023-05-11T07:03:43.327Z,100.00
2023-05-11T07:05:06.901Z,100.00
2023-05-11T07:06:29.790Z,100.00
2023-05-11T07:07:52.889Z,100.00
2023-05-11T07:09:17.001Z,100.00
2023-05-11T07:10:39.825Z,100.00
2023-05-11T07:12:01.679Z,100.00
2023-05-11T07:13:24.585Z,100.00
2023-05-11T07:14:47.360Z,100.00
2023-05-11T07:16:10.110Z,100.00
2023-05-11T07:17:33.057Z,100.00
2023-05-11T07:18:56.685Z,100.00
2023-05-11T07:20:19.676Z,100.00
2023-05-11T07:21:42.748Z,100.00
2023-05-11T07:23:05.632Z,100.00
2023-05-11T07:24:29.770Z,100.00
2023-05-11T07:25:53.544Z,100.00
2023-05-11T07:27:16.426Z,100.00
2023-05-11T07:28:39.650Z,100.00
2023-05-11T07:30:02.509Z,100.00
2023-05-11T07:31:25.356Z,100.00
2023-05-11T07:32:48.850Z,100.00
2023-05-11T07:34:11.698Z,100.00
2023-05-11T07:35:34.698Z,100.00
2023-05-11T07:36:57.462Z,100.00
2023-05-11T07:38:20.265Z,100.00
2023-05-11T07:39:44.349Z,100.00
2023-05-11T07:41:08.843Z,100.00
2023-05-11T07:42:33.016Z,100.00
2023-05-11T07:43:56.018Z,100.00
2023-05-11T07:45:18.818Z,100.00
2023-05-11T07:46:41.774Z,100.00
2023-05-11T07:48:04.790Z,100.00
2023-05-11T07:49:35.654Z,100.00
2023-05-11T07:51:07.610Z,99.47
2023-05-11T07:52:30.611Z,96.98
2023-05-11T07:53:53.577Z,96.69
2023-05-11T07:55:20.214Z,96.02
2023-05-11T07:56:42.338Z,94.74
2023-05-11T07:58:05.154Z,93.44
2023-05-11T07:59:27.921Z,93.24
2023-05-11T08:00:50.876Z,95.21
2023-05-11T08:02:14.075Z,91.30
2023-05-11T08:03:37.114Z,91.96
2023-05-11T08:04:59.908Z,91.75
2023-05-11T08:06:23.124Z,89.56
2023-05-11T08:07:46.460Z,87.80
2023-05-11T08:09:09.228Z,86.10
2023-05-11T08:10:33.356Z,85.49
2023-05-11T08:11:56.638Z,86.28
2023-05-11T08:13:20.153Z,88.04
2023-05-11T08:14:43.532Z,90.17
2023-05-11T08:16:07.678Z,87.93
2023-05-11T08:17:30.283Z,86.73
2023-05-11T08:18:53.123Z,86.82
2023-05-11T08:20:16.021Z,87.56
2023-05-11T08:21:39.218Z,88.13
2023-05-11T08:23:02.008Z,89.20
2023-05-11T08:24:24.744Z,88.80
2023-05-11T08:25:54.245Z,88.16
2023-05-11T08:27:17.228Z,85.54
2023-05-11T08:28:40.012Z,84.67
2023-05-11T08:30:02.966Z,84.51
2023-05-11T08:31:25.854Z,83.59
2023-05-11T08:32:58.126Z,84.45
2023-05-11T08:34:22.397Z,87.86
2023-05-11T08:35:45.272Z,86.73
2023-05-11T08:37:08.111Z,86.66
2023-05-11T08:38:30.918Z,86.63
2023-05-11T08:39:53.690Z,88.56
2023-05-11T08:41:17.812Z,87.20
2023-05-11T08:42:42.123Z,86.88
2023-05-11T08:44:06.031Z,88.17
2023-05-11T08:45:30.709Z,87.04
2023-05-11T08:47:08.584Z,84.53
2023-05-11T08:48:38.046Z,90.51
2023-05-11T08:50:01.110Z,91.97
2023-05-11T08:51:24.347Z,93.55
2023-05-11T08:52:47.218Z,92.14
2023-05-11T08:54:10.042Z,90.09
2023-05-11T08:55:35.017Z,89.10
2023-05-11T08:56:59.846Z,91.20
2023-05-11T08:58:23.110Z,92.60
2023-05-11T08:59:47.323Z,93.61
2023-05-11T09:01:12.288Z,96.47
2023-05-11T09:02:35.909Z,93.15
2023-05-11T09:03:59.142Z,93.22
2023-05-11T09:05:22.290Z,93.96
2023-05-11T09:06:45.452Z,92.48
2023-05-11T09:08:09.353Z,92.35
2023-05-11T09:09:32.246Z,93.80
2023-05-11T09:10:55.420Z,96.18
2023-05-11T09:12:20.678Z,96.45
2023-05-11T09:13:43.611Z,95.32
2023-05-11T09:15:07.445Z,94.02
2023-05-11T09:16:36.635Z,95.04
2023-05-11T09:18:00.514Z,94.08
2023-05-11T09:19:23.299Z,91.92
2023-05-11T09:20:45.161Z,93.29
2023-05-11T09:22:08.010Z,94.48
2023-05-11T09:23:30.892Z,94.19
2023-05-11T09:24:54.012Z,95.50
2023-05-11T09:26:17.644Z,95.31
2023-05-11T09:27:45.571Z,93.60
2023-05-11T09:29:08.393Z,96.19
2023-05-11T09:30:31.368Z,94.76
2023-05-11T09:31:54.641Z,96.33
2023-05-11T09:33:23.605Z,95.95
2023-05-11T09:34:46.392Z,95.84
2023-05-11T09:36:24.245Z,95.72
2023-05-11T09:37:58.287Z,98.40
2023-05-11T09:39:37.810Z,98.34
2023-05-11T09:41:03.309Z,99.43
2023-05-11T09:42:25.266Z,98.75
2023-05-11T09:43:50.216Z,98.99
2023-05-11T09:45:13.231Z,97.87
2023-05-11T09:46:37.056Z,98.39
2023-05-11T09:47:59.926Z,98.67
2023-05-11T09:49:30.418Z,96.58
2023-05-11T09:51:04.242Z,96.06
2023-05-11T09:52:27.046Z,95.94
2023-05-11T09:53:49.826Z,96.09
2023-05-11T09:55:12.620Z,94.82
2023-05-11T09:56:49.161Z,94.40
2023-05-11T09:58:11.263Z,93.12
2023-05-11T09:59:40.411Z,91.62
2023-05-11T10:01:02.300Z,91.26
2023-05-11T10:02:27.164Z,89.79
2023-05-11T10:04:00.150Z,92.16
2023-05-11T10:05:25.822Z,94.91
2023-05-11T10:06:50.121Z,97.99
2023-05-11T10:08:13.021Z,98.29
2023-05-11T10:09:36.257Z,98.91
2023-05-11T10:10:59.491Z,98.45
2023-05-11T10:12:24.265Z,99.19
2023-05-11T10:13:47.278Z,95.61
2023-05-11T10:15:13.112Z,96.55
2023-05-11T10:16:36.619Z,95.98
2023-05-11T10:18:01.289Z,94.73
2023-05-11T10:19:24.575Z,90.47
2023-05-11T10:20:47.797Z,90.31
2023-05-11T10:22:11.604Z,89.89
2023-05-11T10:23:34.891Z,88.99
2023-05-11T10:24:58.751Z,86.77
2023-05-11T10:26:21.857Z,88.12
2023-05-11T10:27:45.402Z,87.07
2023-05-11T10:29:08.532Z,89.29
2023-05-11T10:30:34.321Z,92.72
2023-05-11T10:31:59.100Z,93.02
2023-05-11T10:33:22.106Z,92.41
2023-05-11T10:34:46.344Z,92.22
2023-05-11T10:36:10.033Z,90.00
2023-05-11T10:37:33.287Z,87.92
2023-05-11T10:38:56.119Z,85.23
2023-05-11T10:40:19.963Z,83.69
2023-05-11T10:41:53.570Z,82.55
2023-05-11T10:43:38.710Z,81.90
2023-05-11T10:45:14.099Z,82.22
2023-05-11T10:46:53.789Z,80.02
2023-05-11T10:48:49.510Z,74.64
2023-05-11T10:50:31.144Z,75.97
2023-05-11T10:52:14.673Z,75.43
2023-05-11T10:53:58.994Z,74.24
2023-05-11T10:55:35.028Z,75.35
2023-05-11T10:57:14.893Z,72.95
2023-05-11T10:59:00.767Z,73.99
2023-05-11T11:01:15.809Z,74.97
2023-05-11T11:02:40.126Z,78.48
2023-05-11T11:04:05.609Z,78.48
2023-05-11T11:05:35.432Z,81.29
2023-05-11T11:07:06.575Z,80.55
2023-05-11T11:08:29.865Z,78.72
2023-05-11T11:09:54.454Z,78.91
2023-05-11T11:11:30.275Z,78.11
2023-05-11T11:13:03.090Z,79.14
2023-05-11T11:14:26.354Z,77.29
2023-05-11T11:16:16.357Z,76.09
2023-05-11T11:17:41.018Z,78.17
2023-05-11T11:19:38.886Z,75.12
2023-05-11T11:21:02.350Z,72.88
2023-05-11T11:22:47.505Z,66.17
2023-05-11T11:24:10.520Z,62.29
2023-05-11T11:25:52.036Z,63.76
2023-05-11T11:27:15.834Z,67.39
2023-05-11T11:29:10.422Z,65.13
2023-05-11T11:30:33.673Z,61.60
2023-05-11T11:31:57.051Z,60.92
2023-05-11T11:33:42.204Z,60.14
2023-05-11T11:35:05.368Z,62.63
2023-05-11T11:37:03.392Z,69.35
2023-05-11T11:38:28.601Z,75.13
2023-05-11T11:40:09.482Z,73.07
2023-05-11T11:41:38.104Z,75.48
2023-05-11T11:43:11.530Z,74.65
2023-05-11T11:44:35.980Z,75.03
2023-05-11T11:46:00.848Z,74.83
2023-05-11T11:47:26.234Z,74.59
2023-05-11T11:48:51.415Z,76.46
2023-05-11T11:50:14.406Z,76.78
2023-05-11T11:51:40.182Z,77.02
2023-05-11T11:53:04.208Z,75.57
2023-05-11T11:54:38.291Z,73.93
2023-05-11T11:56:01.139Z,72.78
2023-05-11T11:57:51.094Z,73.22
2023-05-11T11:59:16.078Z,76.13
2023-05-11T12:00:39.435Z,80.11
2023-05-11T12:02:03.147Z,78.60
2023-05-11T12:03:25.753Z,79.40
2023-05-11T12:04:58.107Z,83.16
2023-05-11T12:06:23.427Z,82.97
2023-05-11T12:07:49.549Z,83.64
2023-05-11T12:09:11.604Z,82.09
2023-05-11T12:10:34.842Z,82.88
2023-05-11T12:11:58.361Z,80.12
2023-05-11T12:13:22.008Z,78.18
2023-05-11T12:14:49.218Z,75.91
2023-05-11T12:16:14.310Z,76.12
2023-05-11T12:17:39.759Z,76.17
2023-05-11T12:19:04.325Z,74.89
2023-05-11T12:20:28.596Z,74.03
2023-05-11T12:21:50.762Z,72.93
2023-05-11T12:23:15.296Z,71.12
2023-05-11T12:24:38.887Z,69.49
2023-05-11T12:26:02.623Z,69.79
2023-05-11T12:27:25.565Z,69.37
2023-05-11T12:28:50.235Z,70.03
2023-05-11T12:30:20.627Z,67.67
2023-05-11T12:31:45.000Z,69.81
2023-05-11T12:33:09.292Z,70.20
2023-05-11T12:34:32.233Z,70.01
2023-05-11T12:35:58.106Z,68.95
2023-05-11T12:37:21.505Z,69.90
2023-05-11T12:38:45.005Z,70.00
2023-05-11T12:40:12.408Z,69.39
2023-05-11T12:41:35.740Z,67.64
2023-05-11T12:43:00.420Z,68.02
2023-05-11T12:44:25.430Z,64.69
2023-05-11T12:45:48.889Z,63.95
2023-05-11T12:47:12.056Z,65.16
2023-05-11T12:48:36.082Z,64.31
2023-05-11T12:49:59.190Z,63.41
2023-05-11T12:51:51.994Z,61.54
2023-05-11T12:53:16.143Z,59.93
2023-05-11T12:54:41.144Z,61.37
2023-05-11T12:56:04.673Z,61.22
2023-05-11T12:57:29.062Z,61.37
2023-05-11T12:58:50.925Z,62.67
2023-05-11T13:00:15.513Z,62.02
2023-05-11T13:01:37.591Z,64.38
2023-05-11T13:03:00.554Z,63.74
2023-05-11T13:04:30.824Z,66.04
2023-05-11T13:05:54.274Z,68.48
2023-05-11T13:07:26.724Z,69.39
2023-05-11T13:08:49.901Z,67.94
2023-05-11T13:10:14.060Z,66.03
2023-05-11T13:11:36.922Z,62.90
2023-05-11T13:12:59.707Z,59.81
2023-05-11T13:14:22.424Z,60.43
2023-05-11T13:15:52.633Z,59.35
2023-05-11T13:17:29.952Z,61.94
2023-05-11T13:19:01.346Z,63.76
2023-05-11T13:20:27.270Z,66.28
2023-05-11T13:21:50.190Z,65.73
2023-05-11T13:23:15.802Z,64.64
2023-05-11T13:24:37.828Z,64.83
2023-05-11T13:26:00.698Z,66.95
2023-05-11T13:27:22.566Z,66.17
2023-05-11T13:28:52.428Z,66.87
2023-05-11T13:30:21.137Z,70.39
2023-05-11T13:31:44.798Z,72.13
2023-05-11T13:33:07.823Z,72.31
2023-05-11T13:34:30.597Z,73.35
2023-05-11T13:35:53.406Z,74.10
2023-05-11T13:37:16.193Z,73.94
2023-05-11T13:38:40.391Z,73.52
2023-05-11T13:40:04.171Z,75.27
2023-05-11T13:41:26.982Z,74.00
2023-05-11T13:42:49.816Z,74.77
2023-05-11T13:44:12.731Z,76.08
2023-05-11T13:45:40.127Z,74.99
2023-05-11T13:47:02.951Z,74.61
2023-05-11T13:48:25.773Z,75.89
2023-05-11T13:49:48.926Z,75.57
2023-05-11T13:51:12.000Z,76.31
2023-05-11T13:52:34.775Z,76.09
2023-05-11T13:53:59.362Z,75.60
2023-05-11T13:55:22.306Z,75.70
2023-05-11T13:56:45.139Z,74.98
2023-05-11T13:58:08.228Z,75.26
2023-05-11T13:59:31.519Z,75.65
2023-05-11T14:01:07.287Z,75.14
2023-05-11T14:02:31.131Z,75.92
2023-05-11T14:03:57.845Z,75.04
2023-05-11T14:05:21.056Z,75.61
2023-05-11T14:06:44.350Z,75.08
2023-05-11T14:08:07.130Z,76.37
2023-05-11T14:09:31.571Z,75.87
2023-05-11T14:10:54.358Z,74.67
2023-05-11T14:12:17.390Z,74.13
2023-05-11T14:13:40.148Z,74.91
2023-05-11T14:15:03.069Z,74.50
2023-05-11T14:16:25.888Z,74.58
2023-05-11T14:17:49.370Z,74.53
2023-05-11T14:19:12.353Z,74.29
2023-05-11T14:20:37.389Z,74.59
2023-05-11T14:22:01.182Z,73.08
2023-05-11T14:23:24.053Z,74.10
2023-05-11T14:24:48.226Z,72.74
2023-05-11T14:26:11.051Z,72.05
2023-05-11T14:27:33.844Z,72.62
2023-05-11T14:28:56.630Z,72.41
2023-05-11T14:30:20.023Z,73.96
2023-05-11T14:31:42.901Z,71.59
2023-05-11T14:33:05.709Z,70.57
2023-05-11T14:34:28.636Z,70.17
2023-05-11T14:35:50.671Z,69.99
2023-05-11T14:37:13.840Z,69.33
2023-05-11T14:38:36.686Z,69.36
2023-05-11T14:39:59.901Z,69.69
2023-05-11T14:41:23.182Z,70.29
2023-05-11T14:42:46.085Z,70.75
2023-05-11T14:44:09.980Z,70.42
2023-05-11T14:45:33.537Z,70.69
2023-05-11T14:46:56.401Z,69.26
2023-05-11T14:48:19.170Z,69.13
2023-05-11T14:49:41.945Z,69.25
2023-05-11T14:51:05.040Z,69.44
2023-05-11T14:52:26.929Z,69.44
2023-05-11T14:53:49.763Z,69.56
2023-05-11T14:55:13.885Z,69.61
2023-05-11T14:56:36.665Z,69.98
2023-05-11T14:57:59.462Z,70.44
2023-05-11T14:59:24.295Z,69.42
2023-05-11T15:00:47.109Z,69.98
2023-05-11T15:02:09.883Z,68.11
2023-05-11T15:03:32.761Z,67.88
2023-05-11T15:04:55.190Z,67.29
2023-05-11T15:06:21.932Z,66.82
2023-05-11T15:07:43.832Z,68.32
2023-05-11T15:09:06.712Z,68.34
2023-05-11T15:10:30.834Z,68.76
2023-05-11T15:11:53.896Z,68.94
2023-05-11T15:13:15.769Z,69.56
2023-05-11T15:14:38.569Z,69.62
2023-05-11T15:16:01.411Z,69.67
2023-05-11T15:17:24.245Z,69.15
2023-05-11T15:18:47.057Z,69.11
2023-05-11T15:20:10.790Z,69.50
2023-05-11T15:21:33.781Z,69.41
2023-05-11T15:22:56.614Z,69.67
2023-05-11T15:24:19.697Z,70.16
2023-05-11T15:25:44.480Z,70.98
2023-05-11T15:27:07.452Z,71.24
2023-05-11T15:28:30.361Z,70.96
2023-05-11T15:29:53.159Z,71.61
2023-05-11T15:31:16.046Z,70.65
2023-05-11T15:32:39.180Z,70.25
2023-05-11T15:34:01.309Z,69.45
2023-05-11T15:35:24.165Z,69.19
2023-05-11T15:36:46.177Z,69.48
2023-05-11T15:38:08.978Z,70.01
2023-05-11T15:39:30.840Z,68.81
2023-05-11T15:40:55.019Z,69.05
2023-05-11T15:42:17.816Z,68.74
2023-05-11T15:43:40.722Z,67.82
2023-05-11T15:45:02.917Z,67.92
2023-05-11T15:46:26.147Z,68.83
2023-05-11T15:47:49.095Z,68.56
2023-05-11T15:49:11.889Z,68.00
2023-05-11T15:50:34.650Z,68.83
2023-05-11T15:51:57.603Z,68.72
2023-05-11T15:53:20.505Z,68.72
2023-05-11T15:54:43.338Z,68.44
2023-05-11T15:56:07.837Z,67.54
2023-05-11T15:57:30.650Z,67.83
2023-05-11T15:58:53.420Z,67.85
2023-05-11T16:00:17.527Z,67.18
2023-05-11T16:01:40.682Z,66.27
2023-05-11T16:03:03.759Z,66.74
2023-05-11T16:04:26.825Z,66.33
2023-05-11T16:05:49.606Z,65.63
2023-05-11T16:07:12.431Z,66.97
2023-05-11T16:08:34.495Z,67.14
2023-05-11T16:09:57.367Z,68.18
2023-05-11T16:11:21.735Z,67.33
2023-05-11T16:12:44.502Z,66.27
2023-05-11T16:14:07.275Z,66.96
2023-05-11T16:15:31.215Z,65.11
2023-05-11T16:16:54.114Z,66.96
2023-05-11T16:18:19.629Z,66.96
2023-05-11T16:19:41.618Z,68.03
2023-05-11T16:21:04.994Z,67.17
2023-05-11T16:22:28.042Z,66.65
2023-05-11T16:23:50.842Z,65.66
2023-05-11T16:25:13.789Z,64.82
2023-05-11T16:26:37.914Z,64.40
2023-05-11T16:28:00.694Z,64.94
2023-05-11T16:29:23.652Z,64.83
2023-05-11T16:30:46.420Z,65.61
2023-05-11T16:32:09.168Z,65.70
2023-05-11T16:33:32.015Z,66.17
2023-05-11T16:34:54.912Z,65.04
2023-05-11T16:36:17.793Z,65.80
2023-05-11T16:37:40.544Z,65.41
2023-05-11T16:39:03.364Z,65.74
2023-05-11T16:40:26.919Z,64.32
2023-05-11T16:41:51.025Z,64.70
2023-05-11T16:43:12.918Z,64.72
2023-05-11T16:44:35.967Z,65.07
2023-05-11T16:45:58.891Z,64.47
2023-05-11T16:47:22.742Z,66.57
2023-05-11T16:48:45.584Z,71.15
2023-05-11T16:50:08.996Z,73.26
2023-05-11T16:51:31.756Z,74.46
2023-05-11T16:52:55.080Z,74.13
2023-05-11T16:54:17.913Z,73.45
2023-05-11T16:55:40.693Z,72.08
2023-05-11T16:57:05.852Z,73.21
2023-05-11T16:58:30.837Z,74.97
2023-05-11T16:59:53.651Z,75.69
2023-05-11T17:01:16.811Z,75.34
2023-05-11T17:02:39.769Z,76.72
2023-05-11T17:04:02.789Z,75.72
2023-05-11T17:05:25.604Z,75.00
2023-05-11T17:06:48.388Z,76.02
2023-05-11T17:08:11.266Z,74.73
2023-05-11T17:09:34.054Z,74.21
2023-05-11T17:10:56.830Z,74.46
2023-05-11T17:12:20.944Z,74.54
2023-05-11T17:13:42.800Z,77.56
2023-05-11T17:15:11.919Z,77.44
2023-05-11T17:16:34.783Z,75.70
2023-05-11T17:17:57.740Z,74.92
2023-05-11T17:19:20.529Z,74.70
2023-05-11T17:20:43.323Z,74.95
2023-05-11T17:22:06.881Z,77.25
2023-05-11T17:23:29.843Z,77.57
2023-05-11T17:24:52.666Z,76.69
2023-05-11T17:26:15.975Z,76.58
2023-05-11T17:27:40.790Z,79.74
2023-05-11T17:29:03.581Z,78.68
2023-05-11T17:30:39.943Z,79.33
2023-05-11T17:32:09.362Z,82.30
2023-05-11T17:33:32.495Z,82.08
2023-05-11T17:34:55.292Z,80.21
2023-05-11T17:36:18.634Z,78.95
2023-05-11T17:37:41.505Z,79.97
2023-05-11T17:39:05.089Z,78.94
2023-05-11T17:40:28.358Z,78.38
2023-05-11T17:41:51.240Z,76.82
2023-05-11T17:43:15.463Z,76.26
2023-05-11T17:44:38.749Z,75.57
2023-05-11T17:46:03.978Z,76.45
2023-05-11T17:47:27.204Z,75.94
2023-05-11T17:48:50.049Z,74.41
2023-05-11T17:50:12.793Z,72.88
2023-05-11T17:51:35.665Z,73.38
2023-05-11T17:52:58.682Z,76.96
2023-05-11T17:54:21.506Z,76.26
2023-05-11T17:55:44.329Z,75.40
2023-05-11T17:57:07.437Z,74.17
2023-05-11T17:58:31.523Z,73.01